sensor_id;sensor_type;location;lat;lon;timestamp;temperature;humidity
58409;DHT22;44202;52.730;6.470;2022-07-10T00:01:26;13.80;99.90
58409;DHT22;44202;52.730;6.470;2022-07-10T00:03:51;13.80;99.90
58409;DHT22;44202;52.730;6.470;2022-07-10T00:06:17;13.90;99.90
58409;DHT22;44202;52.730;6.470;2022-07-10T00:08:43;13.80;99.90
58409;DHT22;44202;52.730;6.470;2022-07-10T00:11:09;13.80;99.90
58409;DHT22;44202;52.730;6.470;2022-07-10T00:13:35;13.70;99.90
58409;DHT22;44202;52.730;6.470;2022-07-10T00:16:01;13.60;99.90
58409;DHT22;44202;52.730;6.470;2022-07-10T00:18:28;13.70;99.90
58409;DHT22;44202;52.730;6.470;2022-07-10T00:20:54;13.60;99.90
58409;DHT22;44202;52.730;6.470;2022-07-10T00:23:19;13.60;99.90
58409;DHT22;44202;52.730;6.470;2022-07-10T00:25:45;13.70;99.90
58409;DHT22;44202;52.730;6.470;2022-07-10T00:28:11;13.70;99.90
58409;DHT22;44202;52.730;6.470;2022-07-10T00:30:37;13.60;99.90
58409;DHT22;44202;52.730;6.470;2022-07-10T00:33:03;13.60;99.90
58409;DHT22;44202;52.730;6.470;2022-07-10T00:35:29;13.70;99.90
58409;DHT22;44202;52.730;6.470;2022-07-10T00:37:55;13.50;99.90
58409;DHT22;44202;52.730;6.470;2022-07-10T00:40:20;13.50;99.90
58409;DHT22;44202;52.730;6.470;2022-07-10T00:42:46;13.50;99.90
58409;DHT22;44202;52.730;6.470;2022-07-10T00:45:12;13.40;99.90
58409;DHT22;44202;52.730;6.470;2022-07-10T00:47:38;13.40;99.90
58409;DHT22;44202;52.730;6.470;2022-07-10T00:50:05;13.40;99.90
58409;DHT22;44202;52.730;6.470;2022-07-10T00:52:32;13.40;99.90
58409;DHT22;44202;52.730;6.470;2022-07-10T00:55:01;13.30;99.90
58409;DHT22;44202;52.730;6.470;2022-07-10T00:57:27;13.30;99.90
58409;DHT22;44202;52.730;6.470;2022-07-10T00:59:53;13.30;99.90
58409;DHT22;44202;52.730;6.470;2022-07-10T01:02:19;13.30;99.90
58409;DHT22;44202;52.730;6.470;2022-07-10T01:04:45;13.30;99.90
58409;DHT22;44202;52.730;6.470;2022-07-10T01:07:11;13.40;99.90
58409;DHT22;44202;52.730;6.470;2022-07-10T01:09:41;13.30;99.90
58409;DHT22;44202;52.730;6.470;2022-07-10T01:12:08;13.30;99.90
58409;DHT22;44202;52.730;6.470;2022-07-10T01:14:37;13.20;99.90
58409;DHT22;44202;52.730;6.470;2022-07-10T01:17:06;13.10;99.90
58409;DHT22;44202;52.730;6.470;2022-07-10T01:19:32;13.00;99.90
58409;DHT22;44202;52.730;6.470;2022-07-10T01:21:57;13.00;99.90
58409;DHT22;44202;52.730;6.470;2022-07-10T01:24:23;13.00;99.90
58409;DHT22;44202;52.730;6.470;2022-07-10T01:26:49;12.90;99.90
58409;DHT22;44202;52.730;6.470;2022-07-10T01:29:15;12.90;99.90
58409;DHT22;44202;52.730;6.470;2022-07-10T01:31:40;12.80;99.90
58409;DHT22;44202;52.730;6.470;2022-07-10T01:34:07;12.90;99.90
58409;DHT22;44202;52.730;6.470;2022-07-10T01:36:37;12.70;99.90
58409;DHT22;44202;52.730;6.470;2022-07-10T01:39:03;12.70;99.90
58409;DHT22;44202;52.730;6.470;2022-07-10T01:41:29;12.50;99.90
58409;DHT22;44202;52.730;6.470;2022-07-10T01:43:54;12.50;99.90
58409;DHT22;44202;52.730;6.470;2022-07-10T01:46:20;12.40;99.90
58409;DHT22;44202;52.730;6.470;2022-07-10T01:48:46;12.50;99.90
58409;DHT22;44202;52.730;6.470;2022-07-10T01:51:12;12.40;99.90
58409;DHT22;44202;52.730;6.470;2022-07-10T01:53:39;12.40;99.90
58409;DHT22;44202;52.730;6.470;2022-07-10T01:56:08;12.30;99.90
58409;DHT22;44202;52.730;6.470;2022-07-10T01:58:34;12.30;99.90
58409;DHT22;44202;52.730;6.470;2022-07-10T02:01:00;12.30;99.90
58409;DHT22;44202;52.730;6.470;2022-07-10T02:03:26;12.30;99.90
58409;DHT22;44202;52.730;6.470;2022-07-10T02:06:10;12.40;99.90
58409;DHT22;44202;52.730;6.470;2022-07-10T02:08:36;12.40;99.90
58409;DHT22;44202;52.730;6.470;2022-07-10T02:11:02;12.30;99.90
58409;DHT22;44202;52.730;6.470;2022-07-10T02:13:28;12.30;99.90
58409;DHT22;44202;52.730;6.470;2022-07-10T02:15:54;12.30;99.90
58409;DHT22;44202;52.730;6.470;2022-07-10T02:18:20;12.20;99.90
58409;DHT22;44202;52.730;6.470;2022-07-10T02:20:46;12.10;99.90
58409;DHT22;44202;52.730;6.470;2022-07-10T02:23:12;12.10;99.90
58409;DHT22;44202;52.730;6.470;2022-07-10T02:25:37;12.10;99.90
58409;DHT22;44202;52.730;6.470;2022-07-10T02:28:03;12.10;99.90
58409;DHT22;44202;52.730;6.470;2022-07-10T02:30:29;12.00;99.90
58409;DHT22;44202;52.730;6.470;2022-07-10T02:32:55;12.00;99.90
58409;DHT22;44202;52.730;6.470;2022-07-10T02:35:21;11.90;99.90
58409;DHT22;44202;52.730;6.470;2022-07-10T02:37:46;11.90;99.90
58409;DHT22;44202;52.730;6.470;2022-07-10T02:40:12;11.90;99.90
58409;DHT22;44202;52.730;6.470;2022-07-10T02:42:38;12.00;99.90
58409;DHT22;44202;52.730;6.470;2022-07-10T02:45:04;12.00;99.90
58409;DHT22;44202;52.730;6.470;2022-07-10T02:47:30;12.10;99.90
58409;DHT22;44202;52.730;6.470;2022-07-10T02:49:55;12.20;99.90
58409;DHT22;44202;52.730;6.470;2022-07-10T02:52:21;12.30;99.90
58409;DHT22;44202;52.730;6.470;2022-07-10T02:54:47;12.40;99.90
58409;DHT22;44202;52.730;6.470;2022-07-10T02:57:13;12.30;99.90
58409;DHT22;44202;52.730;6.470;2022-07-10T02:59:38;12.30;99.90
58409;DHT22;44202;52.730;6.470;2022-07-10T03:02:04;12.20;99.90
58409;DHT22;44202;52.730;6.470;2022-07-10T03:04:30;12.20;99.90
58409;DHT22;44202;52.730;6.470;2022-07-10T03:06:56;12.10;99.90
58409;DHT22;44202;52.730;6.470;2022-07-10T03:09:21;12.10;99.90
58409;DHT22;44202;52.730;6.470;2022-07-10T03:11:47;12.00;99.90
58409;DHT22;44202;52.730;6.470;2022-07-10T03:14:12;12.00;99.90
58409;DHT22;44202;52.730;6.470;2022-07-10T03:16:38;12.00;99.90
58409;DHT22;44202;52.730;6.470;2022-07-10T03:19:04;12.00;99.90
58409;DHT22;44202;52.730;6.470;2022-07-10T03:21:29;12.00;99.90
58409;DHT22;44202;52.730;6.470;2022-07-10T03:23:56;11.90;99.90
58409;DHT22;44202;52.730;6.470;2022-07-10T03:26:22;11.90;99.90
58409;DHT22;44202;52.730;6.470;2022-07-10T03:28:47;11.90;99.90
58409;DHT22;44202;52.730;6.470;2022-07-10T03:31:13;12.00;99.90
58409;DHT22;44202;52.730;6.470;2022-07-10T03:33:38;12.00;99.90
58409;DHT22;44202;52.730;6.470;2022-07-10T03:36:04;12.20;99.90
58409;DHT22;44202;52.730;6.470;2022-07-10T03:38:30;12.20;99.90
58409;DHT22;44202;52.730;6.470;2022-07-10T03:40:56;12.20;99.90
58409;DHT22;44202;52.730;6.470;2022-07-10T03:43:22;12.30;99.90
58409;DHT22;44202;52.730;6.470;2022-07-10T03:45:47;12.40;99.90
58409;DHT22;44202;52.730;6.470;2022-07-10T03:48:13;12.30;99.90
58409;DHT22;44202;52.730;6.470;2022-07-10T03:50:38;12.40;99.90
58409;DHT22;44202;52.730;6.470;2022-07-10T03:53:04;12.40;99.90
58409;DHT22;44202;52.730;6.470;2022-07-10T03:55:30;12.60;99.90
58409;DHT22;44202;52.730;6.470;2022-07-10T03:57:55;12.60;99.90
58409;DHT22;44202;52.730;6.470;2022-07-10T04:00:26;12.70;99.90
58409;DHT22;44202;52.730;6.470;2022-07-10T04:03:03;12.80;99.90
58409;DHT22;44202;52.730;6.470;2022-07-10T04:05:29;12.70;99.90
58409;DHT22;44202;52.730;6.470;2022-07-10T04:07:56;12.70;99.90
58409;DHT22;44202;52.730;6.470;2022-07-10T04:10:22;12.80;99.90
58409;DHT22;44202;52.730;6.470;2022-07-10T04:12:49;12.90;99.90
58409;DHT22;44202;52.730;6.470;2022-07-10T04:15:15;12.80;99.90
58409;DHT22;44202;52.730;6.470;2022-07-10T04:17:40;12.90;99.90
58409;DHT22;44202;52.730;6.470;2022-07-10T04:20:07;12.90;99.90
58409;DHT22;44202;52.730;6.470;2022-07-10T04:22:33;13.00;99.90
58409;DHT22;44202;52.730;6.470;2022-07-10T04:24:58;13.10;99.90
58409;DHT22;44202;52.730;6.470;2022-07-10T04:27:24;13.00;99.90
58409;DHT22;44202;52.730;6.470;2022-07-10T04:29:50;13.10;99.90
58409;DHT22;44202;52.730;6.470;2022-07-10T04:32:16;12.90;99.90
58409;DHT22;44202;52.730;6.470;2022-07-10T04:34:42;13.00;99.90
58409;DHT22;44202;52.730;6.470;2022-07-10T04:37:07;13.00;99.90
58409;DHT22;44202;52.730;6.470;2022-07-10T04:39:36;13.00;99.90
58409;DHT22;44202;52.730;6.470;2022-07-10T04:42:04;13.00;99.90
58409;DHT22;44202;52.730;6.470;2022-07-10T04:44:29;13.10;99.90
58409;DHT22;44202;52.730;6.470;2022-07-10T04:46:55;13.30;99.90
58409;DHT22;44202;52.730;6.470;2022-07-10T04:49:21;13.50;99.90
58409;DHT22;44202;52.730;6.470;2022-07-10T04:51:47;13.60;99.90
58409;DHT22;44202;52.730;6.470;2022-07-10T04:54:12;13.70;99.90
58409;DHT22;44202;52.730;6.470;2022-07-10T04:56:38;13.80;99.90
58409;DHT22;44202;52.730;6.470;2022-07-10T04:59:05;13.80;99.90
58409;DHT22;44202;52.730;6.470;2022-07-10T05:01:31;13.90;99.90
58409;DHT22;44202;52.730;6.470;2022-07-10T05:03:57;13.90;99.90
58409;DHT22;44202;52.730;6.470;2022-07-10T05:06:23;14.00;99.90
58409;DHT22;44202;52.730;6.470;2022-07-10T05:08:48;14.00;99.90
58409;DHT22;44202;52.730;6.470;2022-07-10T05:11:14;14.20;99.90
58409;DHT22;44202;52.730;6.470;2022-07-10T05:13:40;14.20;99.90
58409;DHT22;44202;52.730;6.470;2022-07-10T05:16:09;14.30;99.90
58409;DHT22;44202;52.730;6.470;2022-07-10T05:18:35;14.30;99.90
58409;DHT22;44202;52.730;6.470;2022-07-10T05:21:00;14.40;99.90
58409;DHT22;44202;52.730;6.470;2022-07-10T05:23:26;14.50;99.90
58409;DHT22;44202;52.730;6.470;2022-07-10T05:25:51;14.60;99.90
58409;DHT22;44202;52.730;6.470;2022-07-10T05:28:17;14.60;99.90
58409;DHT22;44202;52.730;6.470;2022-07-10T05:30:43;14.60;99.90
58409;DHT22;44202;52.730;6.470;2022-07-10T05:33:08;14.70;99.90
58409;DHT22;44202;52.730;6.470;2022-07-10T05:35:34;14.70;99.90
58409;DHT22;44202;52.730;6.470;2022-07-10T05:38:00;14.80;99.90
58409;DHT22;44202;52.730;6.470;2022-07-10T05:40:25;14.80;99.90
58409;DHT22;44202;52.730;6.470;2022-07-10T05:42:52;14.90;99.90
58409;DHT22;44202;52.730;6.470;2022-07-10T05:45:17;14.90;99.90
58409;DHT22;44202;52.730;6.470;2022-07-10T05:47:43;15.00;99.90
58409;DHT22;44202;52.730;6.470;2022-07-10T05:50:10;14.90;99.90
58409;DHT22;44202;52.730;6.470;2022-07-10T05:52:36;14.90;99.90
58409;DHT22;44202;52.730;6.470;2022-07-10T05:55:03;14.90;99.90
58409;DHT22;44202;52.730;6.470;2022-07-10T05:57:30;14.90;99.90
58409;DHT22;44202;52.730;6.470;2022-07-10T06:00:14;15.00;99.90
58409;DHT22;44202;52.730;6.470;2022-07-10T06:02:40;15.00;99.90
58409;DHT22;44202;52.730;6.470;2022-07-10T06:05:06;15.10;99.90
58409;DHT22;44202;52.730;6.470;2022-07-10T06:07:33;15.10;99.90
58409;DHT22;44202;52.730;6.470;2022-07-10T06:09:59;15.20;99.90
58409;DHT22;44202;52.730;6.470;2022-07-10T06:12:25;15.10;99.90
58409;DHT22;44202;52.730;6.470;2022-07-10T06:14:51;15.20;99.90
58409;DHT22;44202;52.730;6.470;2022-07-10T06:17:16;15.30;99.90
58409;DHT22;44202;52.730;6.470;2022-07-10T06:19:42;15.40;99.90
58409;DHT22;44202;52.730;6.470;2022-07-10T06:22:07;15.40;99.90
58409;DHT22;44202;52.730;6.470;2022-07-10T06:24:52;15.40;99.90
58409;DHT22;44202;52.730;6.470;2022-07-10T06:27:17;15.30;99.90
58409;DHT22;44202;52.730;6.470;2022-07-10T06:29:44;15.10;99.90
58409;DHT22;44202;52.730;6.470;2022-07-10T06:32:10;15.20;99.90
58409;DHT22;44202;52.730;6.470;2022-07-10T06:34:36;15.30;99.90
58409;DHT22;44202;52.730;6.470;2022-07-10T06:37:02;15.30;99.90
58409;DHT22;44202;52.730;6.470;2022-07-10T06:39:32;15.30;99.90
58409;DHT22;44202;52.730;6.470;2022-07-10T06:42:04;15.30;99.90
58409;DHT22;44202;52.730;6.470;2022-07-10T06:44:30;15.40;99.90
58409;DHT22;44202;52.730;6.470;2022-07-10T06:46:57;15.50;99.90
58409;DHT22;44202;52.730;6.470;2022-07-10T06:49:42;15.60;99.90
58409;DHT22;44202;52.730;6.470;2022-07-10T06:52:09;15.70;99.90
58409;DHT22;44202;52.730;6.470;2022-07-10T06:54:35;15.80;99.90
58409;DHT22;44202;52.730;6.470;2022-07-10T06:57:01;15.80;99.90
58409;DHT22;44202;52.730;6.470;2022-07-10T06:59:26;15.80;99.90
58409;DHT22;44202;52.730;6.470;2022-07-10T07:01:52;15.70;99.90
58409;DHT22;44202;52.730;6.470;2022-07-10T07:04:18;15.50;99.90
58409;DHT22;44202;52.730;6.470;2022-07-10T07:06:43;15.30;99.90
58409;DHT22;44202;52.730;6.470;2022-07-10T07:09:09;15.10;99.90
58409;DHT22;44202;52.730;6.470;2022-07-10T07:11:35;15.10;99.90
58409;DHT22;44202;52.730;6.470;2022-07-10T07:14:00;15.10;99.90
58409;DHT22;44202;52.730;6.470;2022-07-10T07:16:26;15.00;99.90
58409;DHT22;44202;52.730;6.470;2022-07-10T07:19:07;14.90;99.90
58409;DHT22;44202;52.730;6.470;2022-07-10T07:21:33;15.00;99.90
58409;DHT22;44202;52.730;6.470;2022-07-10T07:24:17;15.00;99.90
58409;DHT22;44202;52.730;6.470;2022-07-10T07:26:46;15.10;99.90
58409;DHT22;44202;52.730;6.470;2022-07-10T07:29:13;15.20;99.90
58409;DHT22;44202;52.730;6.470;2022-07-10T07:31:39;15.10;99.90
58409;DHT22;44202;52.730;6.470;2022-07-10T07:34:05;15.00;99.90
58409;DHT22;44202;52.730;6.470;2022-07-10T07:36:31;14.90;99.90
58409;DHT22;44202;52.730;6.470;2022-07-10T07:38:56;14.80;99.90
58409;DHT22;44202;52.730;6.470;2022-07-10T07:41:22;14.80;99.90
58409;DHT22;44202;52.730;6.470;2022-07-10T07:43:48;14.90;99.90
58409;DHT22;44202;52.730;6.470;2022-07-10T07:46:14;15.00;99.90
58409;DHT22;44202;52.730;6.470;2022-07-10T07:48:40;15.10;99.90
58409;DHT22;44202;52.730;6.470;2022-07-10T07:51:06;15.30;99.90
58409;DHT22;44202;52.730;6.470;2022-07-10T07:53:32;15.50;99.90
58409;DHT22;44202;52.730;6.470;2022-07-10T07:55:58;15.60;99.90
58409;DHT22;44202;52.730;6.470;2022-07-10T07:58:23;15.70;99.90
58409;DHT22;44202;52.730;6.470;2022-07-10T08:00:49;15.90;99.90
58409;DHT22;44202;52.730;6.470;2022-07-10T08:03:15;16.10;99.90
58409;DHT22;44202;52.730;6.470;2022-07-10T08:05:41;16.20;99.90
58409;DHT22;44202;52.730;6.470;2022-07-10T08:08:07;16.30;99.90
58409;DHT22;44202;52.730;6.470;2022-07-10T08:10:37;16.40;99.90
58409;DHT22;44202;52.730;6.470;2022-07-10T08:13:03;16.60;99.90
58409;DHT22;44202;52.730;6.470;2022-07-10T08:15:29;16.70;99.90
58409;DHT22;44202;52.730;6.470;2022-07-10T08:17:56;16.70;99.90
58409;DHT22;44202;52.730;6.470;2022-07-10T08:20:23;16.70;99.90
58409;DHT22;44202;52.730;6.470;2022-07-10T08:22:49;16.60;99.90
58409;DHT22;44202;52.730;6.470;2022-07-10T08:25:16;16.60;99.90
58409;DHT22;44202;52.730;6.470;2022-07-10T08:27:42;16.50;99.90
58409;DHT22;44202;52.730;6.470;2022-07-10T08:30:10;16.40;99.90
58409;DHT22;44202;52.730;6.470;2022-07-10T08:32:39;16.30;99.90
58409;DHT22;44202;52.730;6.470;2022-07-10T08:35:06;16.00;99.90
58409;DHT22;44202;52.730;6.470;2022-07-10T08:37:42;15.80;99.90
58409;DHT22;44202;52.730;6.470;2022-07-10T08:40:12;15.60;99.90
58409;DHT22;44202;52.730;6.470;2022-07-10T08:42:40;15.50;99.90
58409;DHT22;44202;52.730;6.470;2022-07-10T08:45:06;15.40;99.90
58409;DHT22;44202;52.730;6.470;2022-07-10T08:47:36;15.40;99.90
58409;DHT22;44202;52.730;6.470;2022-07-10T08:50:02;15.40;99.90
58409;DHT22;44202;52.730;6.470;2022-07-10T08:52:42;15.40;99.90
58409;DHT22;44202;52.730;6.470;2022-07-10T08:55:11;15.60;99.90
58409;DHT22;44202;52.730;6.470;2022-07-10T08:57:39;15.60;99.90
58409;DHT22;44202;52.730;6.470;2022-07-10T09:00:06;15.70;99.90
58409;DHT22;44202;52.730;6.470;2022-07-10T09:02:53;16.00;99.90
58409;DHT22;44202;52.730;6.470;2022-07-10T09:05:19;16.10;99.90
58409;DHT22;44202;52.730;6.470;2022-07-10T09:07:44;16.20;99.90
58409;DHT22;44202;52.730;6.470;2022-07-10T09:10:11;16.30;99.90
58409;DHT22;44202;52.730;6.470;2022-07-10T09:15:21;15.90;99.90
58409;DHT22;44202;52.730;6.470;2022-07-10T09:17:57;15.70;99.90
58409;DHT22;44202;52.730;6.470;2022-07-10T09:20:28;15.50;99.90
58409;DHT22;44202;52.730;6.470;2022-07-10T09:22:56;15.40;99.90
58409;DHT22;44202;52.730;6.470;2022-07-10T09:25:30;15.50;99.90
58409;DHT22;44202;52.730;6.470;2022-07-10T09:27:56;15.70;99.90
58409;DHT22;44202;52.730;6.470;2022-07-10T09:30:38;15.90;99.90
58409;DHT22;44202;52.730;6.470;2022-07-10T09:33:24;16.10;99.90
58409;DHT22;44202;52.730;6.470;2022-07-10T09:36:02;16.30;99.90
58409;DHT22;44202;52.730;6.470;2022-07-10T09:41:15;16.40;99.90
58409;DHT22;44202;52.730;6.470;2022-07-10T09:43:45;16.40;99.90
58409;DHT22;44202;52.730;6.470;2022-07-10T09:46:11;16.60;99.90
58409;DHT22;44202;52.730;6.470;2022-07-10T09:48:37;16.70;99.90
58409;DHT22;44202;52.730;6.470;2022-07-10T09:51:05;16.80;99.90
58409;DHT22;44202;52.730;6.470;2022-07-10T09:53:33;17.00;99.90
58409;DHT22;44202;52.730;6.470;2022-07-10T09:56:01;17.20;99.90
58409;DHT22;44202;52.730;6.470;2022-07-10T09:58:32;17.40;99.90
58409;DHT22;44202;52.730;6.470;2022-07-10T10:01:06;17.40;99.90
58409;DHT22;44202;52.730;6.470;2022-07-10T10:03:37;17.40;99.90
58409;DHT22;44202;52.730;6.470;2022-07-10T10:06:14;17.20;99.90
58409;DHT22;44202;52.730;6.470;2022-07-10T10:09:04;16.90;99.90
58409;DHT22;44202;52.730;6.470;2022-07-10T10:11:35;16.40;99.90
58409;DHT22;44202;52.730;6.470;2022-07-10T10:14:02;16.00;99.90
58409;DHT22;44202;52.730;6.470;2022-07-10T10:16:29;15.90;99.90
58409;DHT22;44202;52.730;6.470;2022-07-10T10:18:55;15.90;99.90
58409;DHT22;44202;52.730;6.470;2022-07-10T10:21:40;15.80;99.90
58409;DHT22;44202;52.730;6.470;2022-07-10T10:24:06;15.90;99.90
58409;DHT22;44202;52.730;6.470;2022-07-10T10:26:35;16.00;99.90
58409;DHT22;44202;52.730;6.470;2022-07-10T10:29:02;16.40;99.90
58409;DHT22;44202;52.730;6.470;2022-07-10T10:31:30;16.80;99.90
58409;DHT22;44202;52.730;6.470;2022-07-10T10:33:57;17.10;99.90
58409;DHT22;44202;52.730;6.470;2022-07-10T10:39:11;17.50;99.90
58409;DHT22;44202;52.730;6.470;2022-07-10T10:41:39;17.20;99.90
58409;DHT22;44202;52.730;6.470;2022-07-10T10:49:20;16.70;99.90
58409;DHT22;44202;52.730;6.470;2022-07-10T10:54:24;17.00;99.90
58409;DHT22;44202;52.730;6.470;2022-07-10T10:57:11;17.70;99.90
58409;DHT22;44202;52.730;6.470;2022-07-10T10:59:53;18.30;99.90
58409;DHT22;44202;52.730;6.470;2022-07-10T11:02:28;18.90;99.90
58409;DHT22;44202;52.730;6.470;2022-07-10T11:07:56;20.10;99.90
58409;DHT22;44202;52.730;6.470;2022-07-10T11:15:28;20.20;99.90
58409;DHT22;44202;52.730;6.470;2022-07-10T11:18:11;19.70;99.90
58409;DHT22;44202;52.730;6.470;2022-07-10T11:20:43;19.30;99.90
58409;DHT22;44202;52.730;6.470;2022-07-10T11:26:21;18.40;99.90
58409;DHT22;44202;52.730;6.470;2022-07-10T11:28:53;17.90;99.90
58409;DHT22;44202;52.730;6.470;2022-07-10T11:31:21;17.40;99.90
58409;DHT22;44202;52.730;6.470;2022-07-10T11:33:49;17.00;99.90
58409;DHT22;44202;52.730;6.470;2022-07-10T11:36:26;16.90;99.90
58409;DHT22;44202;52.730;6.470;2022-07-10T11:38:58;17.30;99.90
58409;DHT22;44202;52.730;6.470;2022-07-10T11:41:25;17.90;99.90
58409;DHT22;44202;52.730;6.470;2022-07-10T11:44:14;18.50;99.90
58409;DHT22;44202;52.730;6.470;2022-07-10T11:46:41;19.20;99.90
58409;DHT22;44202;52.730;6.470;2022-07-10T11:49:10;19.60;99.90
58409;DHT22;44202;52.730;6.470;2022-07-10T11:51:38;19.40;99.90
58409;DHT22;44202;52.730;6.470;2022-07-10T11:54:10;18.60;99.90
58409;DHT22;44202;52.730;6.470;2022-07-10T11:56:39;17.90;99.90
58409;DHT22;44202;52.730;6.470;2022-07-10T11:59:11;17.60;99.90
58409;DHT22;44202;52.730;6.470;2022-07-10T12:01:48;17.50;99.90
58409;DHT22;44202;52.730;6.470;2022-07-10T12:04:16;17.40;99.90
58409;DHT22;44202;52.730;6.470;2022-07-10T12:06:43;17.40;99.90
58409;DHT22;44202;52.730;6.470;2022-07-10T12:09:17;17.50;99.90
58409;DHT22;44202;52.730;6.470;2022-07-10T12:11:44;17.70;99.90
58409;DHT22;44202;52.730;6.470;2022-07-10T12:14:23;17.70;99.90
58409;DHT22;44202;52.730;6.470;2022-07-10T12:16:50;17.80;99.90
58409;DHT22;44202;52.730;6.470;2022-07-10T12:19:28;18.10;99.90
58409;DHT22;44202;52.730;6.470;2022-07-10T12:21:58;18.40;99.90
58409;DHT22;44202;52.730;6.470;2022-07-10T12:24:25;18.80;99.90
58409;DHT22;44202;52.730;6.470;2022-07-10T12:26:52;19.00;99.90
58409;DHT22;44202;52.730;6.470;2022-07-10T12:29:25;19.00;99.90
58409;DHT22;44202;52.730;6.470;2022-07-10T12:31:59;19.00;99.90
58409;DHT22;44202;52.730;6.470;2022-07-10T12:34:42;19.10;99.90
58409;DHT22;44202;52.730;6.470;2022-07-10T12:37:13;18.90;99.90
58409;DHT22;44202;52.730;6.470;2022-07-10T12:39:50;18.90;99.90
58409;DHT22;44202;52.730;6.470;2022-07-10T12:42:28;19.00;99.90
58409;DHT22;44202;52.730;6.470;2022-07-10T12:44:54;19.10;99.90
58409;DHT22;44202;52.730;6.470;2022-07-10T12:47:20;19.20;99.90
58409;DHT22;44202;52.730;6.470;2022-07-10T12:52:32;19.60;99.90
58409;DHT22;44202;52.730;6.470;2022-07-10T12:55:14;19.50;99.90
58409;DHT22;44202;52.730;6.470;2022-07-10T12:57:59;19.50;99.90
58409;DHT22;44202;52.730;6.470;2022-07-10T13:00:35;19.30;99.90
58409;DHT22;44202;52.730;6.470;2022-07-10T13:05:40;18.90;99.90
58409;DHT22;44202;52.730;6.470;2022-07-10T13:10:37;19.00;99.90
58409;DHT22;44202;52.730;6.470;2022-07-10T13:13:04;19.00;99.90
58409;DHT22;44202;52.730;6.470;2022-07-10T13:15:31;19.00;99.90
58409;DHT22;44202;52.730;6.470;2022-07-10T13:17:57;19.00;99.90
58409;DHT22;44202;52.730;6.470;2022-07-10T13:20:23;19.10;99.90
58409;DHT22;44202;52.730;6.470;2022-07-10T13:22:49;19.30;99.90
58409;DHT22;44202;52.730;6.470;2022-07-10T13:25:14;19.50;99.90
58409;DHT22;44202;52.730;6.470;2022-07-10T13:27:40;19.70;99.90
58409;DHT22;44202;52.730;6.470;2022-07-10T13:30:07;19.80;99.90
58409;DHT22;44202;52.730;6.470;2022-07-10T13:32:33;19.80;99.90
58409;DHT22;44202;52.730;6.470;2022-07-10T13:34:59;19.80;99.90
58409;DHT22;44202;52.730;6.470;2022-07-10T13:37:25;19.60;99.90
58409;DHT22;44202;52.730;6.470;2022-07-10T13:39:51;19.40;99.90
58409;DHT22;44202;52.730;6.470;2022-07-10T13:42:16;19.40;99.90
58409;DHT22;44202;52.730;6.470;2022-07-10T13:44:42;19.30;99.90
58409;DHT22;44202;52.730;6.470;2022-07-10T13:47:08;19.20;99.90
58409;DHT22;44202;52.730;6.470;2022-07-10T13:49:34;19.20;99.90
58409;DHT22;44202;52.730;6.470;2022-07-10T13:52:00;19.10;99.90
58409;DHT22;44202;52.730;6.470;2022-07-10T13:54:25;19.10;99.90
58409;DHT22;44202;52.730;6.470;2022-07-10T13:56:51;19.20;99.90
58409;DHT22;44202;52.730;6.470;2022-07-10T13:59:17;19.30;99.90
58409;DHT22;44202;52.730;6.470;2022-07-10T14:01:43;19.30;99.90
58409;DHT22;44202;52.730;6.470;2022-07-10T14:04:08;19.20;99.90
58409;DHT22;44202;52.730;6.470;2022-07-10T14:06:34;19.10;99.90
58409;DHT22;44202;52.730;6.470;2022-07-10T14:09:00;19.10;99.90
58409;DHT22;44202;52.730;6.470;2022-07-10T14:11:26;19.10;99.90
58409;DHT22;44202;52.730;6.470;2022-07-10T14:13:52;19.20;99.90
58409;DHT22;44202;52.730;6.470;2022-07-10T14:16:18;19.40;99.90
58409;DHT22;44202;52.730;6.470;2022-07-10T14:18:44;19.70;99.90
58409;DHT22;44202;52.730;6.470;2022-07-10T14:21:10;20.10;99.90
58409;DHT22;44202;52.730;6.470;2022-07-10T14:23:38;20.50;99.90
58409;DHT22;44202;52.730;6.470;2022-07-10T14:26:05;21.00;99.90
58409;DHT22;44202;52.730;6.470;2022-07-10T14:28:31;21.30;99.90
58409;DHT22;44202;52.730;6.470;2022-07-10T14:30:58;21.40;99.90
58409;DHT22;44202;52.730;6.470;2022-07-10T14:33:26;21.40;99.90
58409;DHT22;44202;52.730;6.470;2022-07-10T14:35:52;21.20;99.90
58409;DHT22;44202;52.730;6.470;2022-07-10T14:38:17;21.10;99.90
58409;DHT22;44202;52.730;6.470;2022-07-10T14:40:43;21.10;99.90
58409;DHT22;44202;52.730;6.470;2022-07-10T14:43:09;21.20;99.90
58409;DHT22;44202;52.730;6.470;2022-07-10T14:45:34;21.00;99.90
58409;DHT22;44202;52.730;6.470;2022-07-10T14:48:00;20.80;99.90
58409;DHT22;44202;52.730;6.470;2022-07-10T14:50:26;20.70;99.90
58409;DHT22;44202;52.730;6.470;2022-07-10T14:52:52;20.50;99.90
58409;DHT22;44202;52.730;6.470;2022-07-10T14:55:18;20.50;99.90
58409;DHT22;44202;52.730;6.470;2022-07-10T14:57:44;20.40;99.90
58409;DHT22;44202;52.730;6.470;2022-07-10T15:00:10;20.30;99.90
58409;DHT22;44202;52.730;6.470;2022-07-10T15:02:35;20.40;99.90
58409;DHT22;44202;52.730;6.470;2022-07-10T15:05:01;20.60;99.90
58409;DHT22;44202;52.730;6.470;2022-07-10T15:07:28;20.80;99.90
58409;DHT22;44202;52.730;6.470;2022-07-10T15:09:54;21.00;99.90
58409;DHT22;44202;52.730;6.470;2022-07-10T15:12:19;21.20;99.90
58409;DHT22;44202;52.730;6.470;2022-07-10T15:14:46;21.40;99.90
58409;DHT22;44202;52.730;6.470;2022-07-10T15:17:12;21.50;99.90
58409;DHT22;44202;52.730;6.470;2022-07-10T15:19:38;21.50;99.90
58409;DHT22;44202;52.730;6.470;2022-07-10T15:22:03;21.30;99.90
58409;DHT22;44202;52.730;6.470;2022-07-10T15:24:29;21.00;99.90
58409;DHT22;44202;52.730;6.470;2022-07-10T15:26:55;20.70;99.90
58409;DHT22;44202;52.730;6.470;2022-07-10T15:29:20;20.60;99.90
58409;DHT22;44202;52.730;6.470;2022-07-10T15:31:51;20.50;99.90
58409;DHT22;44202;52.730;6.470;2022-07-10T15:34:17;20.30;99.90
58409;DHT22;44202;52.730;6.470;2022-07-10T15:36:43;20.20;99.90
58409;DHT22;44202;52.730;6.470;2022-07-10T15:39:12;20.00;99.90
58409;DHT22;44202;52.730;6.470;2022-07-10T15:41:38;19.90;99.90
58409;DHT22;44202;52.730;6.470;2022-07-10T15:44:06;19.80;99.90
58409;DHT22;44202;52.730;6.470;2022-07-10T15:46:31;19.70;99.90
58409;DHT22;44202;52.730;6.470;2022-07-10T15:48:57;19.70;99.90
58409;DHT22;44202;52.730;6.470;2022-07-10T15:51:24;19.70;99.90
58409;DHT22;44202;52.730;6.470;2022-07-10T15:53:50;19.70;99.90
58409;DHT22;44202;52.730;6.470;2022-07-10T15:56:16;19.70;99.90
58409;DHT22;44202;52.730;6.470;2022-07-10T15:58:41;19.70;99.90
58409;DHT22;44202;52.730;6.470;2022-07-10T16:01:08;19.60;99.90
58409;DHT22;44202;52.730;6.470;2022-07-10T16:03:35;19.50;99.90
58409;DHT22;44202;52.730;6.470;2022-07-10T16:06:01;19.40;99.90
58409;DHT22;44202;52.730;6.470;2022-07-10T16:08:27;19.30;99.90